sensor_id;sensor_type;location;lat;lon;timestamp;temperature;humidity
3866;DHT22;1948;53.250;10.412;2022-11-04T00:02:01;10.70;99.90
3866;DHT22;1948;53.250;10.412;2022-11-04T00:04:29;10.70;99.90
3866;DHT22;1948;53.250;10.412;2022-11-04T00:06:57;10.70;99.90
3866;DHT22;1948;53.250;10.412;2022-11-04T00:09:26;10.70;99.90
3866;DHT22;1948;53.250;10.412;2022-11-04T00:11:58;10.70;99.90
3866;DHT22;1948;53.250;10.412;2022-11-04T00:14:43;10.70;99.90
3866;DHT22;1948;53.250;10.412;2022-11-04T00:17:11;10.70;99.90
3866;DHT22;1948;53.250;10.412;2022-11-04T00:19:51;10.70;99.90
3866;DHT22;1948;53.250;10.412;2022-11-04T00:22:41;10.70;99.90
3866;DHT22;1948;53.250;10.412;2022-11-04T00:25:29;10.70;99.90
3866;DHT22;1948;53.250;10.412;2022-11-04T00:28:16;10.70;99.90
3866;DHT22;1948;53.250;10.412;2022-11-04T00:31:06;10.70;99.90
3866;DHT22;1948;53.250;10.412;2022-11-04T00:33:54;10.70;99.90
3866;DHT22;1948;53.250;10.412;2022-11-04T00:36:25;10.70;99.90
3866;DHT22;1948;53.250;10.412;2022-11-04T00:38:55;10.80;99.90
3866;DHT22;1948;53.250;10.412;2022-11-04T00:41:22;10.70;99.90
3866;DHT22;1948;53.250;10.412;2022-11-04T00:43:59;10.70;99.90
3866;DHT22;1948;53.250;10.412;2022-11-04T00:46:31;10.70;99.90
3866;DHT22;1948;53.250;10.412;2022-11-04T00:49:01;10.80;99.90
3866;DHT22;1948;53.250;10.412;2022-11-04T00:51:31;10.80;99.90
3866;DHT22;1948;53.250;10.412;2022-11-04T00:53:58;10.80;99.90
3866;DHT22;1948;53.250;10.412;2022-11-04T00:56:25;10.80;99.90
3866;DHT22;1948;53.250;10.412;2022-11-04T00:58:52;10.80;99.90
3866;DHT22;1948;53.250;10.412;2022-11-04T01:01:19;10.80;99.90
3866;DHT22;1948;53.250;10.412;2022-11-04T01:03:50;10.80;99.90
3866;DHT22;1948;53.250;10.412;2022-11-04T01:06:19;10.80;99.90
3866;DHT22;1948;53.250;10.412;2022-11-04T01:08:58;10.80;99.90
3866;DHT22;1948;53.250;10.412;2022-11-04T01:11:30;10.80;99.90
3866;DHT22;1948;53.250;10.412;2022-11-04T01:13:57;10.80;99.90
3866;DHT22;1948;53.250;10.412;2022-11-04T01:16:29;10.70;99.90
3866;DHT22;1948;53.250;10.412;2022-11-04T01:18:56;10.70;99.90
3866;DHT22;1948;53.250;10.412;2022-11-04T01:21:23;10.70;99.90
3866;DHT22;1948;53.250;10.412;2022-11-04T01:23:50;10.70;99.90
3866;DHT22;1948;53.250;10.412;2022-11-04T01:26:21;10.70;99.90
3866;DHT22;1948;53.250;10.412;2022-11-04T01:28:51;10.70;99.90
3866;DHT22;1948;53.250;10.412;2022-11-04T01:31:25;10.60;99.90
3866;DHT22;1948;53.250;10.412;2022-11-04T01:33:59;10.60;99.90
3866;DHT22;1948;53.250;10.412;2022-11-04T01:36:26;10.60;99.90
3866;DHT22;1948;53.250;10.412;2022-11-04T01:38:55;10.60;99.90
3866;DHT22;1948;53.250;10.412;2022-11-04T01:41:27;10.60;99.90
3866;DHT22;1948;53.250;10.412;2022-11-04T01:43:56;10.70;99.90
3866;DHT22;1948;53.250;10.412;2022-11-04T01:46:33;10.70;99.90
3866;DHT22;1948;53.250;10.412;2022-11-04T01:49:23;10.70;99.90
3866;DHT22;1948;53.250;10.412;2022-11-04T01:52:01;10.80;99.90
3866;DHT22;1948;53.250;10.412;2022-11-04T01:54:33;10.80;99.90
3866;DHT22;1948;53.250;10.412;2022-11-04T01:57:04;10.80;99.90
3866;DHT22;1948;53.250;10.412;2022-11-04T01:59:36;10.80;99.90
3866;DHT22;1948;53.250;10.412;2022-11-04T02:02:04;10.80;99.90
3866;DHT22;1948;53.250;10.412;2022-11-04T02:04:35;10.80;99.90
3866;DHT22;1948;53.250;10.412;2022-11-04T02:07:05;10.80;99.90
3866;DHT22;1948;53.250;10.412;2022-11-04T02:09:35;10.90;99.90
3866;DHT22;1948;53.250;10.412;2022-11-04T02:12:03;10.90;99.90
3866;DHT22;1948;53.250;10.412;2022-11-04T02:14:51;11.00;99.90
3866;DHT22;1948;53.250;10.412;2022-11-04T02:24:10;10.90;99.90
3866;DHT22;1948;53.250;10.412;2022-11-04T02:29:31;10.90;99.90
3866;DHT22;1948;53.250;10.412;2022-11-04T02:32:26;10.90;99.90
3866;DHT22;1948;53.250;10.412;2022-11-04T02:46:41;10.80;99.90
3866;DHT22;1948;53.250;10.412;2022-11-04T02:49:12;10.80;99.90
3866;DHT22;1948;53.250;10.412;2022-11-04T02:51:50;10.80;99.90
3866;DHT22;1948;53.250;10.412;2022-11-04T02:54:29;10.80;99.90
3866;DHT22;1948;53.250;10.412;2022-11-04T02:57:03;10.90;99.90
3866;DHT22;1948;53.250;10.412;2022-11-04T02:59:39;10.90;99.90
3866;DHT22;1948;53.250;10.412;2022-11-04T03:02:11;10.80;99.90
3866;DHT22;1948;53.250;10.412;2022-11-04T03:04:48;10.80;99.90
3866;DHT22;1948;53.250;10.412;2022-11-04T03:07:20;10.90;99.90
3866;DHT22;1948;53.250;10.412;2022-11-04T03:09:56;10.80;99.90
3866;DHT22;1948;53.250;10.412;2022-11-04T03:12:36;10.80;99.90
3866;DHT22;1948;53.250;10.412;2022-11-04T03:15:10;10.80;99.90
3866;DHT22;1948;53.250;10.412;2022-11-04T03:17:51;10.80;99.90
3866;DHT22;1948;53.250;10.412;2022-11-04T03:20:23;10.90;99.90
3866;DHT22;1948;53.250;10.412;2022-11-04T03:22:54;10.90;99.90
3866;DHT22;1948;53.250;10.412;2022-11-04T03:25:30;10.80;99.90
3866;DHT22;1948;53.250;10.412;2022-11-04T03:31:00;10.80;99.90
3866;DHT22;1948;53.250;10.412;2022-11-04T03:36:17;10.80;99.90
3866;DHT22;1948;53.250;10.412;2022-11-04T03:38:47;10.90;99.90
3866;DHT22;1948;53.250;10.412;2022-11-04T03:41:25;10.90;99.90
3866;DHT22;1948;53.250;10.412;2022-11-04T03:44:12;10.90;99.90
3866;DHT22;1948;53.250;10.412;2022-11-04T03:46:39;10.90;99.90
3866;DHT22;1948;53.250;10.412;2022-11-04T03:49:08;11.00;99.90
3866;DHT22;1948;53.250;10.412;2022-11-04T03:51:36;11.00;99.90
3866;DHT22;1948;53.250;10.412;2022-11-04T03:54:03;11.00;99.90
3866;DHT22;1948;53.250;10.412;2022-11-04T04:00:12;11.10;99.90
3866;DHT22;1948;53.250;10.412;2022-11-04T04:03:01;11.00;99.90
3866;DHT22;1948;53.250;10.412;2022-11-04T04:05:58;11.10;99.90
3866;DHT22;1948;53.250;10.412;2022-11-04T04:16:32;11.00;99.90
3866;DHT22;1948;53.250;10.412;2022-11-04T04:19:12;11.00;99.90
3866;DHT22;1948;53.250;10.412;2022-11-04T04:24:22;11.00;99.90
3866;DHT22;1948;53.250;10.412;2022-11-04T04:27:12;11.00;99.90
3866;DHT22;1948;53.250;10.412;2022-11-04T04:30:09;11.00;99.90
3866;DHT22;1948;53.250;10.412;2022-11-04T04:32:49;11.10;99.90
3866;DHT22;1948;53.250;10.412;2022-11-04T04:35:25;11.10;99.90
3866;DHT22;1948;53.250;10.412;2022-11-04T04:38:30;11.00;99.90
3866;DHT22;1948;53.250;10.412;2022-11-04T04:41:24;11.10;99.90
3866;DHT22;1948;53.250;10.412;2022-11-04T04:44:28;11.10;99.90
3866;DHT22;1948;53.250;10.412;2022-11-04T04:47:16;11.10;99.90
3866;DHT22;1948;53.250;10.412;2022-11-04T04:49:54;11.20;99.90
3866;DHT22;1948;53.250;10.412;2022-11-04T04:52:30;11.20;99.90
3866;DHT22;1948;53.250;10.412;2022-11-04T04:55:05;11.20;99.90
3866;DHT22;1948;53.250;10.412;2022-11-04T04:57:34;11.20;99.90
3866;DHT22;1948;53.250;10.412;2022-11-04T05:00:03;11.20;99.90
3866;DHT22;1948;53.250;10.412;2022-11-04T05:02:31;11.20;99.90
3866;DHT22;1948;53.250;10.412;2022-11-04T05:05:04;11.30;99.90
3866;DHT22;1948;53.250;10.412;2022-11-04T05:07:31;11.30;99.90
3866;DHT22;1948;53.250;10.412;2022-11-04T05:09:58;11.30;99.90
3866;DHT22;1948;53.250;10.412;2022-11-04T05:12:25;11.40;99.90
3866;DHT22;1948;53.250;10.412;2022-11-04T05:15:12;11.30;99.90
3866;DHT22;1948;53.250;10.412;2022-11-04T05:17:39;11.30;99.90
3866;DHT22;1948;53.250;10.412;2022-11-04T05:20:09;11.30;99.90
3866;DHT22;1948;53.250;10.412;2022-11-04T05:22:36;11.30;99.90
3866;DHT22;1948;53.250;10.412;2022-11-04T05:25:03;11.30;99.90
3866;DHT22;1948;53.250;10.412;2022-11-04T05:27:30;11.30;99.90
3866;DHT22;1948;53.250;10.412;2022-11-04T05:30:00;11.30;99.90
3866;DHT22;1948;53.250;10.412;2022-11-04T05:32:28;11.30;99.90
3866;DHT22;1948;53.250;10.412;2022-11-04T05:34:57;11.30;99.90
3866;DHT22;1948;53.250;10.412;2022-11-04T05:37:26;11.30;99.90
3866;DHT22;1948;53.250;10.412;2022-11-04T05:39:53;11.30;99.90
3866;DHT22;1948;53.250;10.412;2022-11-04T05:42:20;11.30;99.90
3866;DHT22;1948;53.250;10.412;2022-11-04T05:44:49;11.30;99.90
3866;DHT22;1948;53.250;10.412;2022-11-04T05:47:16;11.30;99.90
3866;DHT22;1948;53.250;10.412;2022-11-04T05:49:46;11.30;99.90
3866;DHT22;1948;53.250;10.412;2022-11-04T05:52:13;11.30;99.90
3866;DHT22;1948;53.250;10.412;2022-11-04T05:54:40;11.30;99.90
3866;DHT22;1948;53.250;10.412;2022-11-04T05:57:07;11.30;99.90
3866;DHT22;1948;53.250;10.412;2022-11-04T05:59:37;11.30;99.90
3866;DHT22;1948;53.250;10.412;2022-11-04T06:02:04;11.30;99.90
3866;DHT22;1948;53.250;10.412;2022-11-04T06:04:31;11.30;99.90
3866;DHT22;1948;53.250;10.412;2022-11-04T06:06:58;11.30;99.90
3866;DHT22;1948;53.250;10.412;2022-11-04T06:09:24;11.30;99.90
3866;DHT22;1948;53.250;10.412;2022-11-04T06:12:09;11.20;99.90
3866;DHT22;1948;53.250;10.412;2022-11-04T06:14:37;11.30;99.90
3866;DHT22;1948;53.250;10.412;2022-11-04T06:17:04;11.20;99.90
3866;DHT22;1948;53.250;10.412;2022-11-04T06:19:31;11.20;99.90
3866;DHT22;1948;53.250;10.412;2022-11-04T06:21:59;11.20;99.90
3866;DHT22;1948;53.250;10.412;2022-11-04T06:24:26;11.20;99.90
3866;DHT22;1948;53.250;10.412;2022-11-04T06:26:56;11.20;99.90
3866;DHT22;1948;53.250;10.412;2022-11-04T06:29:22;11.20;99.90
3866;DHT22;1948;53.250;10.412;2022-11-04T06:31:52;11.10;99.90
3866;DHT22;1948;53.250;10.412;2022-11-04T06:34:21;11.10;99.90
3866;DHT22;1948;53.250;10.412;2022-11-04T06:36:50;11.10;99.90
3866;DHT22;1948;53.250;10.412;2022-11-04T06:39:19;11.00;99.90
3866;DHT22;1948;53.250;10.412;2022-11-04T06:41:47;11.00;99.90
3866;DHT22;1948;53.250;10.412;2022-11-04T06:44:17;11.00;99.90
3866;DHT22;1948;53.250;10.412;2022-11-04T06:46:44;11.00;99.90
3866;DHT22;1948;53.250;10.412;2022-11-04T06:49:18;11.00;99.90
3866;DHT22;1948;53.250;10.412;2022-11-04T06:51:46;11.00;99.90
3866;DHT22;1948;53.250;10.412;2022-11-04T06:54:15;11.00;99.90
3866;DHT22;1948;53.250;10.412;2022-11-04T06:56:42;11.00;99.90
3866;DHT22;1948;53.250;10.412;2022-11-04T06:59:17;11.10;99.90
3866;DHT22;1948;53.250;10.412;2022-11-04T07:01:46;11.10;99.90
3866;DHT22;1948;53.250;10.412;2022-11-04T07:04:14;11.10;99.90
3866;DHT22;1948;53.250;10.412;2022-11-04T07:06:41;11.10;99.90
3866;DHT22;1948;53.250;10.412;2022-11-04T07:09:12;11.10;99.90
3866;DHT22;1948;53.250;10.412;2022-11-04T07:11:42;11.10;99.90
3866;DHT22;1948;53.250;10.412;2022-11-04T07:14:10;11.20;99.90
3866;DHT22;1948;53.250;10.412;2022-11-04T07:16:37;11.20;99.90
3866;DHT22;1948;53.250;10.412;2022-11-04T07:19:04;11.20;99.90
3866;DHT22;1948;53.250;10.412;2022-11-04T07:21:33;11.20;99.90
3866;DHT22;1948;53.250;10.412;2022-11-04T07:24:01;11.20;99.90
3866;DHT22;1948;53.250;10.412;2022-11-04T07:26:28;11.20;99.90
3866;DHT22;1948;53.250;10.412;2022-11-04T07:28:54;11.30;99.90
3866;DHT22;1948;53.250;10.412;2022-11-04T07:31:22;11.40;99.90
3866;DHT22;1948;53.250;10.412;2022-11-04T07:33:52;11.50;99.90
3866;DHT22;1948;53.250;10.412;2022-11-04T07:36:19;11.60;99.90
3866;DHT22;1948;53.250;10.412;2022-11-04T07:38:46;11.70;99.90
3866;DHT22;1948;53.250;10.412;2022-11-04T07:41:14;11.90;99.90
3866;DHT22;1948;53.250;10.412;2022-11-04T07:43:42;12.00;99.90
3866;DHT22;1948;53.250;10.412;2022-11-04T07:46:13;12.10;99.90
3866;DHT22;1948;53.250;10.412;2022-11-04T07:48:43;12.20;99.90
3866;DHT22;1948;53.250;10.412;2022-11-04T07:51:12;12.20;99.90
3866;DHT22;1948;53.250;10.412;2022-11-04T07:53:42;12.10;99.90
3866;DHT22;1948;53.250;10.412;2022-11-04T07:56:14;12.10;99.90
3866;DHT22;1948;53.250;10.412;2022-11-04T07:58:44;12.00;99.90
3866;DHT22;1948;53.250;10.412;2022-11-04T08:01:14;11.90;99.90
3866;DHT22;1948;53.250;10.412;2022-11-04T08:03:42;11.70;99.90
3866;DHT22;1948;53.250;10.412;2022-11-04T08:06:11;11.70;99.90
3866;DHT22;1948;53.250;10.412;2022-11-04T08:08:39;11.60;99.90
3866;DHT22;1948;53.250;10.412;2022-11-04T08:11:12;11.60;99.90
3866;DHT22;1948;53.250;10.412;2022-11-04T08:13:46;11.60;99.90
3866;DHT22;1948;53.250;10.412;2022-11-04T08:16:16;11.60;99.90
3866;DHT22;1948;53.250;10.412;2022-11-04T08:18:46;11.50;99.90
3866;DHT22;1948;53.250;10.412;2022-11-04T08:21:14;11.40;99.90
3866;DHT22;1948;53.250;10.412;2022-11-04T08:23:41;11.50;99.90
3866;DHT22;1948;53.250;10.412;2022-11-04T08:26:14;11.50;99.90
3866;DHT22;1948;53.250;10.412;2022-11-04T08:28:42;11.50;99.90
3866;DHT22;1948;53.250;10.412;2022-11-04T08:31:18;11.40;99.90
3866;DHT22;1948;53.250;10.412;2022-11-04T08:33:47;11.40;99.90
3866;DHT22;1948;53.250;10.412;2022-11-04T08:36:17;11.50;99.90
3866;DHT22;1948;53.250;10.412;2022-11-04T08:38:56;11.60;99.90
3866;DHT22;1948;53.250;10.412;2022-11-04T08:41:26;11.70;99.90
3866;DHT22;1948;53.250;10.412;2022-11-04T08:43:58;11.80;99.90
3866;DHT22;1948;53.250;10.412;2022-11-04T08:46:27;11.80;99.90
3866;DHT22;1948;53.250;10.412;2022-11-04T08:49:08;11.80;99.90
3866;DHT22;1948;53.250;10.412;2022-11-04T08:51:42;12.00;99.90
3866;DHT22;1948;53.250;10.412;2022-11-04T08:54:17;12.00;99.90
3866;DHT22;1948;53.250;10.412;2022-11-04T08:56:46;12.00;99.90
3866;DHT22;1948;53.250;10.412;2022-11-04T08:59:15;12.00;99.90
3866;DHT22;1948;53.250;10.412;2022-11-04T09:01:43;12.00;99.90
3866;DHT22;1948;53.250;10.412;2022-11-04T09:04:11;12.10;99.90
3866;DHT22;1948;53.250;10.412;2022-11-04T09:06:42;12.10;99.90
3866;DHT22;1948;53.250;10.412;2022-11-04T09:09:14;12.20;99.90
3866;DHT22;1948;53.250;10.412;2022-11-04T09:11:43;12.30;99.90
3866;DHT22;1948;53.250;10.412;2022-11-04T09:14:17;12.40;99.90
3866;DHT22;1948;53.250;10.412;2022-11-04T09:16:43;12.30;99.90
3866;DHT22;1948;53.250;10.412;2022-11-04T09:19:13;12.40;99.90
3866;DHT22;1948;53.250;10.412;2022-11-04T09:21:42;12.40;99.90
3866;DHT22;1948;53.250;10.412;2022-11-04T09:24:12;12.60;99.90
3866;DHT22;1948;53.250;10.412;2022-11-04T09:26:39;12.70;99.90
3866;DHT22;1948;53.250;10.412;2022-11-04T09:29:06;12.60;99.90
3866;DHT22;1948;53.250;10.412;2022-11-04T09:31:38;12.70;99.90
3866;DHT22;1948;53.250;10.412;2022-11-04T09:34:12;12.80;99.90
3866;DHT22;1948;53.250;10.412;2022-11-04T09:36:39;13.00;99.90
3866;DHT22;1948;53.250;10.412;2022-11-04T09:39:05;12.90;99.90
3866;DHT22;1948;53.250;10.412;2022-11-04T09:47:50;13.00;99.90
3866;DHT22;1948;53.250;10.412;2022-11-04T09:50:24;12.80;99.90
3866;DHT22;1948;53.250;10.412;2022-11-04T09:52:59;12.70;99.90
3866;DHT22;1948;53.250;10.412;2022-11-04T09:55:38;12.70;99.90
3866;DHT22;1948;53.250;10.412;2022-11-04T09:58:12;12.80;99.90
3866;DHT22;1948;53.250;10.412;2022-11-04T10:00:44;12.80;99.90
3866;DHT22;1948;53.250;10.412;2022-11-04T10:06:59;12.60;99.90
3866;DHT22;1948;53.250;10.412;2022-11-04T10:10:02;12.60;99.90
3866;DHT22;1948;53.250;10.412;2022-11-04T10:26:53;14.50;99.90
3866;DHT22;1948;53.250;10.412;2022-11-04T10:29:49;14.40;99.90
3866;DHT22;1948;53.250;10.412;2022-11-04T10:32:28;14.40;99.90
3866;DHT22;1948;53.250;10.412;2022-11-04T10:35:09;14.20;99.90
3866;DHT22;1948;53.250;10.412;2022-11-04T10:37:47;14.20;99.90
3866;DHT22;1948;53.250;10.412;2022-11-04T10:40:26;14.30;99.90
3866;DHT22;1948;53.250;10.412;2022-11-04T10:42:58;14.40;99.90
3866;DHT22;1948;53.250;10.412;2022-11-04T10:45:33;14.40;99.90
3866;DHT22;1948;53.250;10.412;2022-11-04T10:48:12;14.30;99.90
3866;DHT22;1948;53.250;10.412;2022-11-04T10:50:55;14.30;99.90
3866;DHT22;1948;53.250;10.412;2022-11-04T10:53:28;14.60;99.90
3866;DHT22;1948;53.250;10.412;2022-11-04T10:56:32;14.60;99.90
3866;DHT22;1948;53.250;10.412;2022-11-04T11:01:58;15.00;99.90
3866;DHT22;1948;53.250;10.412;2022-11-04T11:04:32;15.40;99.90
3866;DHT22;1948;53.250;10.412;2022-11-04T11:07:10;15.60;99.90
3866;DHT22;1948;53.250;10.412;2022-11-04T11:12:24;16.10;99.90
3866;DHT22;1948;53.250;10.412;2022-11-04T11:15:29;16.10;99.90
3866;DHT22;1948;53.250;10.412;2022-11-04T11:18:14;16.70;99.90
3866;DHT22;1948;53.250;10.412;2022-11-04T11:21:02;17.50;99.90
3866;DHT22;1948;53.250;10.412;2022-11-04T11:23:46;18.30;99.90
3866;DHT22;1948;53.250;10.412;2022-11-04T11:26:19;18.90;99.90
3866;DHT22;1948;53.250;10.412;2022-11-04T11:28:51;19.20;99.90
3866;DHT22;1948;53.250;10.412;2022-11-04T11:31:38;18.70;99.90
3866;DHT22;1948;53.250;10.412;2022-11-04T11:34:32;18.10;99.90
3866;DHT22;1948;53.250;10.412;2022-11-04T11:37:02;17.30;99.90
3866;DHT22;1948;53.250;10.412;2022-11-04T11:39:32;16.70;99.90
3866;DHT22;1948;53.250;10.412;2022-11-04T11:42:11;16.40;99.90
3866;DHT22;1948;53.250;10.412;2022-11-04T11:44:55;16.00;99.90
3866;DHT22;1948;53.250;10.412;2022-11-04T11:50:24;15.90;99.90
3866;DHT22;1948;53.250;10.412;2022-11-04T11:53:14;15.70;99.90
3866;DHT22;1948;53.250;10.412;2022-11-04T11:55:53;15.60;99.90
3866;DHT22;1948;53.250;10.412;2022-11-04T12:01:33;15.80;99.90
3866;DHT22;1948;53.250;10.412;2022-11-04T12:04:04;16.00;99.90
3866;DHT22;1948;53.250;10.412;2022-11-04T12:10:23;16.40;99.90
3866;DHT22;1948;53.250;10.412;2022-11-04T12:13:28;16.60;99.90
3866;DHT22;1948;53.250;10.412;2022-11-04T12:19:16;17.30;99.90
3866;DHT22;1948;53.250;10.412;2022-11-04T12:25:15;17.60;99.90
3866;DHT22;1948;53.250;10.412;2022-11-04T12:28:12;17.30;99.90
3866;DHT22;1948;53.250;10.412;2022-11-04T12:31:09;17.10;99.90
3866;DHT22;1948;53.250;10.412;2022-11-04T12:34:08;17.20;99.90
3866;DHT22;1948;53.250;10.412;2022-11-04T12:37:08;17.30;99.90
3866;DHT22;1948;53.250;10.412;2022-11-04T12:46:11;17.10;99.90
3866;DHT22;1948;53.250;10.412;2022-11-04T12:49:17;17.20;99.90
3866;DHT22;1948;53.250;10.412;2022-11-04T12:57:52;17.40;99.90
3866;DHT22;1948;53.250;10.412;2022-11-04T13:00:23;17.70;99.90
3866;DHT22;1948;53.250;10.412;2022-11-04T13:03:00;17.80;99.90
3866;DHT22;1948;53.250;10.412;2022-11-04T13:05:52;17.40;99.90
3866;DHT22;1948;53.250;10.412;2022-11-04T13:08:32;17.50;99.90
3866;DHT22;1948;53.250;10.412;2022-11-04T13:16:30;16.50;99.90
3866;DHT22;1948;53.250;10.412;2022-11-04T13:19:05;16.50;99.90
3866;DHT22;1948;53.250;10.412;2022-11-04T13:21:38;16.60;99.90
3866;DHT22;1948;53.250;10.412;2022-11-04T13:24:13;17.10;99.90
3866;DHT22;1948;53.250;10.412;2022-11-04T13:26:41;17.60;99.90
3866;DHT22;1948;53.250;10.412;2022-11-04T13:29:15;18.10;99.90
3866;DHT22;1948;53.250;10.412;2022-11-04T13:32:09;18.70;99.90
3866;DHT22;1948;53.250;10.412;2022-11-04T13:35:06;18.70;99.90
3866;DHT22;1948;53.250;10.412;2022-11-04T13:37:40;19.20;99.90
3866;DHT22;1948;53.250;10.412;2022-11-04T13:40:18;19.60;99.90
3866;DHT22;1948;53.250;10.412;2022-11-04T13:48:39;17.40;99.90
3866;DHT22;1948;53.250;10.412;2022-11-04T13:51:15;17.10;99.90
3866;DHT22;1948;53.250;10.412;2022-11-04T13:56:44;16.10;99.90
3866;DHT22;1948;53.250;10.412;2022-11-04T13:59:25;15.90;99.90
3866;DHT22;1948;53.250;10.412;2022-11-04T14:04:45;15.30;99.90
3866;DHT22;1948;53.250;10.412;2022-11-04T14:07:14;15.10;99.90
3866;DHT22;1948;53.250;10.412;2022-11-04T14:09:51;14.90;99.90
3866;DHT22;1948;53.250;10.412;2022-11-04T14:12:27;14.90;99.90
3866;DHT22;1948;53.250;10.412;2022-11-04T14:15:12;14.80;99.90
3866;DHT22;1948;53.250;10.412;2022-11-04T14:20:21;14.80;99.90
3866;DHT22;1948;53.250;10.412;2022-11-04T14:22:55;14.80;99.90
3866;DHT22;1948;53.250;10.412;2022-11-04T14:25:38;14.90;99.90
3866;DHT22;1948;53.250;10.412;2022-11-04T14:30:41;15.10;99.90
3866;DHT22;1948;53.250;10.412;2022-11-04T14:33:49;15.20;99.90
3866;DHT22;1948;53.250;10.412;2022-11-04T14:44:31;15.10;99.90
3866;DHT22;1948;53.250;10.412;2022-11-04T14:47:24;15.00;99.90
3866;DHT22;1948;53.250;10.412;2022-11-04T14:55:21;14.70;99.90
3866;DHT22;1948;53.250;10.412;2022-11-04T14:57:55;14.70;99.90
3866;DHT22;1948;53.250;10.412;2022-11-04T15:00:50;14.60;99.90
3866;DHT22;1948;53.250;10.412;2022-11-04T15:03:28;14.50;99.90
3866;DHT22;1948;53.250;10.412;2022-11-04T15:06:26;14.50;99.90
3866;DHT22;1948;53.250;10.412;2022-11-04T15:09:20;14.40;99.90
3866;DHT22;1948;53.250;10.412;2022-11-04T15:12:11;14.40;99.90
3866;DHT22;1948;53.250;10.412;2022-11-04T15:14:58;14.50;99.90
3866;DHT22;1948;53.250;10.412;2022-11-04T15:17:28;14.60;99.90
3866;DHT22;1948;53.250;10.412;2022-11-04T15:20:01;14.90;99.90
3866;DHT22;1948;53.250;10.412;2022-11-04T15:22:31;15.20;99.90
3866;DHT22;1948;53.250;10.412;2022-11-04T15:25:02;15.20;99.90
3866;DHT22;1948;53.250;10.412;2022-11-04T15:27:33;15.00;99.90
3866;DHT22;1948;53.250;10.412;2022-11-04T15:30:02;14.70;99.90
3866;DHT22;1948;53.250;10.412;2022-11-04T15:32:33;14.60;99.90
3866;DHT22;1948;53.250;10.412;2022-11-04T15:35:00;14.50;99.90
3866;DHT22;1948;53.250;10.412;2022-11-04T15:37:30;14.40;99.90
3866;DHT22;1948;53.250;10.412;2022-11-04T15:39:59;14.30;99.90
3866;DHT22;1948;53.250;10.412;2022-11-04T15:42:28;14.20;99.90
3866;DHT22;1948;53.250;10.412;2022-11-04T15:45:38;14.20;99.90
3866;DHT22;1948;53.250;10.412;2022-11-04T15:48:32;14.10;99.90
3866;DHT22;1948;53.250;10.412;2022-11-04T15:54:00;13.90;99.90
3866;DHT22;1948;53.250;10.412;2022-11-04T15:56:41;13.90;99.90
3866;DHT22;1948;53.250;10.412;2022-11-04T15:59:17;13.80;99.90
3866;DHT22;1948;53.250;10.412;2022-11-04T16:01:54;13.80;99.90
3866;DHT22;1948;53.250;10.412;2022-11-04T16:04:27;13.70;99.90
3866;DHT22;1948;53.250;10.412;2022-11-04T16:09:45;13.60;99.90
3866;DHT22;1948;53.250;10.412;2022-11-04T16:14:56;13.50;99.90
3866;DHT22;1948;53.250;10.412;2022-11-04T16:17:25;13.40;99.90
3866;DHT22;1948;53.250;10.412;2022-11-04T16:19:59;13.40;99.90
3866;DHT22;1948;53.250;10.412;2022-11-04T16:22:33;13.40;99.90
3866;DHT22;1948;53.250;10.412;2022-11-04T16:25:06;13.40;99.90
3866;DHT22;1948;53.250;10.412;2022-11-04T16:27:36;13.40;99.90
3866;DHT22;1948;53.250;10.412;2022-11-04T16:30:16;13.30;99.90
3866;DHT22;1948;53.250;10.412;2022-11-04T16:32:46;13.20;99.90
3866;DHT22;1948;53.250;10.412;2022-11-04T16:35:20;13.20;99.90
3866;DHT22;1948;53.250;10.412;2022-11-04T16:37:51;13.10;99.90
3866;DHT22;1948;53.250;10.412;2022-11-04T16:40:22;13.00;99.90
3866;DHT22;1948;53.250;10.412;2022-11-04T16:42:52;12.90;99.90
3866;DHT22;1948;53.250;10.412;2022-11-04T16:45:26;12.80;99.90
3866;DHT22;1948;53.250;10.412;2022-11-04T16:47:56;12.80;99.90
3866;DHT22;1948;53.250;10.412;2022-11-04T16:50:23;12.70;99.90
3866;DHT22;1948;53.250;10.412;2022-11-04T16:52:51;12.60;99.90
3866;DHT22;1948;53.250;10.412;2022-11-04T16:55:18;12.60;99.90
3866;DHT22;1948;53.250;10.412;2022-11-04T16:57:53;12.50;99.90
3866;DHT22;1948;53.250;10.412;2022-11-04T17:00:26;12.50;99.90
3866;DHT22;1948;53.250;10.412;2022-11-04T17:02:56;12.40;99.90
3866;DHT22;1948;53.250;10.412;2022-11-04T17:05:23;12.40;99.90
3866;DHT22;1948;53.250;10.412;2022-11-04T17:07:50;12.40;99.90
3866;DHT22;1948;53.250;10.412;2022-11-04T17:10:25;12.40;99.90
3866;DHT22;1948;53.250;10.412;2022-11-04T17:12:53;12.30;99.90
3866;DHT22;1948;53.250;10.412;2022-11-04T17:15:22;12.30;99.90
3866;DHT22;1948;53.250;10.412;2022-11-04T17:17:52;12.30;99.90
3866;DHT22;1948;53.250;10.412;2022-11-04T17:20:18;12.20;99.90
3866;DHT22;1948;53.250;10.412;2022-11-04T17:22:48;12.20;99.90
3866;DHT22;1948;53.250;10.412;2022-11-04T17:25:24;12.20;99.90
3866;DHT22;1948;53.250;10.412;2022-11-04T17:27:54;12.10;99.90
3866;DHT22;1948;53.250;10.412;2022-11-04T17:30:25;12.10;99.90
3866;DHT22;1948;53.250;10.412;2022-11-04T17:32:51;12.10;99.90
3866;DHT22;1948;53.250;10.412;2022-11-04T17:35:18;12.10;99.90
3866;DHT22;1948;53.250;10.412;2022-11-04T17:37:50;12.10;99.90
3866;DHT22;1948;53.250;10.412;2022-11-04T17:40:20;12.10;99.90
3866;DHT22;1948;53.250;10.412;2022-11-04T17:42:49;12.10;99.90
3866;DHT22;1948;53.250;10.412;2022-11-04T17:45:44;12.10;99.90
3866;DHT22;1948;53.250;10.412;2022-11-04T17:48:11;12.00;99.90
3866;DHT22;1948;53.250;10.412;2022-11-04T17:50:40;12.00;99.90
3866;DHT22;1948;53.250;10.412;2022-11-04T17:53:08;11.90;99.90
3866;DHT22;1948;53.250;10.412;2022-11-04T17:55:37;11.90;99.90
3866;DHT22;1948;53.250;10.412;2022-11-04T17:58:05;11.90;99.90
3866;DHT22;1948;53.250;10.412;2022-11-04T18:00:32;11.80;99.90
3866;DHT22;1948;53.250;10.412;2022-11-04T18:02:59;11.80;99.90
3866;DHT22;1948;53.250;10.412;2022-11-04T18:05:28;11.70;99.90
3866;DHT22;1948;53.250;10.412;2022-11-04T18:07:55;11.70;99.90
3866;DHT22;1948;53.250;10.412;2022-11-04T18:10:23;11.70;99.90
3866;DHT22;1948;53.250;10.412;2022-11-04T18:12:50;11.70;99.90
3866;DHT22;1948;53.250;10.412;2022-11-04T18:15:18;11.60;99.90
3866;DHT22;1948;53.250;10.412;2022-11-04T18:17:45;11.60;99.90
3866;DHT22;1948;53.250;10.412;2022-11-04T18:20:17;11.60;99.90
3866;DHT22;1948;53.250;10.412;2022-11-04T18:22:47;11.50;99.90
3866;DHT22;1948;53.250;10.412;2022-11-04T18:25:17;11.50;99.90
3866;DHT22;1948;53.250;10.412;2022-11-04T18:27:46;11.50;99.90
3866;DHT22;1948;53.250;10.412;2022-11-04T18:30:14;11.40;99.90
3866;DHT22;1948;53.250;10.412;2022-11-04T18:32:41;11.40;99.90
3866;DHT22;1948;53.250;10.412;2022-11-04T18:35:11;11.40;99.90
3866;DHT22;1948;53.250;10.412;2022-11-04T18:37:38;11.30;99.90
3866;DHT22;1948;53.250;10.412;2022-11-04T18:40:15;11.30;99.90
3866;DHT22;1948;53.250;10.412;2022-11-04T18:42:48;11.30;99.90
3866;DHT22;1948;53.250;10.412;2022-11-04T18:45:16;11.30;99.90
3866;DHT22;1948;53.250;10.412;2022-11-04T18:47:46;11.20;99.90
3866;DHT22;1948;53.250;10.412;2022-11-04T18:50:13;11.20;99.90
3866;DHT22;1948;53.250;10.412;2022-11-04T18:52:41;11.20;99.90